Terminal Aerodrome Forecast
Issued by NWS Albuquerque, NM

Home | Current Version | Previous Version | Text Only | Print | Product List | Glossary On
Versions: 1 2 3 4 5 6 7 8 9 10 11 12 13
205
FTUS45 KABQ 271136
TAFABQ
TAF
KABQ 271136Z 2712/2812 12005KT P6SM BKN120
     FM271800 24006KT P6SM BKN100
     FM272100 25007KT P6SM VCTS BKN080CB
     FM280000 31008KT P6SM VCSH OVC070
     FM280300 12005KT P6SM BKN100=

USA.gov is the U.S. government's official web portal to all federal, state and local government web resources and services.